Terminal Aerodrome Forecast
Issued by NWS Central Illinois

Home | Current Version | Previous Version | Text Only | Print | Product List | Glossary On
Versions: 1 2 3 4 5 6 7 8 9 10 11 12
000
FTUS43 KILX 251726
TAFSPI
TAF
KSPI 251726Z 2518/2618 17006KT P6SM SCT060
     FM260000 18003KT P6SM FEW080 SCT250
     FM261500 22007KT P6SM SCT050 BKN200=

USA.gov is the U.S. government's official web portal to all federal, state and local government web resources and services.